Time;durP1;ratioP1;P1;durP2;ratioP2;P2;SDS_P1;SDS_P2;PMS_P1;PMS_P2;Temp;Humidity;BMP_temperature;BMP_pressure;BME280_temperature;BME280_humidity;BME280_pressure;Samples;Min_cycle;Max_cycle;Signal;HPM_P1;HPM_P2
2023/06/01 00:01:37;;;;;;;0.10;0.10;;;;;;;-145.06;100.00;92379.34;10492385;28;20275;-74
2023/06/01 00:06:37;;;;;;;0.10;0.10;;;;;;;-145.06;100.00;92340.50;10494602;28;20110;-74
2023/06/01 00:11:38;;;;;;;0.10;0.10;;;;;;;-145.06;100.00;92375.28;10491252;28;20442;-74
2023/06/01 00:16:38;;;;;;;0.00;0.00;;;;;;;-145.06;100.00;92385.50;10498218;28;20508;-74
2023/06/01 00:21:38;;;;;;;0.10;0.10;;;;;;;-145.06;100.00;92295.53;10493298;28;20027;-74
2023/06/01 00:26:39;;;;;;;0.10;0.10;;;;;;;-145.06;100.00;92387.53;10494971;28;20101;-74
2023/06/01 00:31:40;;;;;;;0.10;0.10;;;;;;;-145.06;100.00;92350.72;10493976;28;20027;-74
2023/06/01 00:36:40;;;;;;;0.10;0.10;;;;;;;-145.06;100.00;92379.34;10490553;28;20064;-74
2023/06/01 00:41:41;;;;;;;0.10;0.10;;;;;;;-145.06;100.00;92307.78;10487482;28;20461;-74
2023/06/01 00:46:42;;;;;;;0.03;0.03;;;;;;;-145.06;100.00;92354.81;10477516;28;20483;-74
2023/06/01 00:51:42;;;;;;;0.00;0.00;;;;;;;-145.06;100.00;92320.06;10485155;28;20100;-74
2023/06/01 00:56:43;;;;;;;0.10;0.10;;;;;;;-145.06;100.00;92358.91;10466314;28;20569;-73
2023/06/01 01:01:43;;;;;;;0.00;0.00;;;;;;;-145.06;100.00;92328.25;10480251;28;20027;-74
2023/06/01 01:06:51;;;;;;;0.00;0.00;;;;;;;-145.06;100.00;92371.19;10491127;28;20469;-74
2023/06/01 01:11:59;;;;;;;0.10;0.10;;;;;;;-145.06;100.00;92338.47;10499039;22;20561;-78
2023/06/01 01:17:10;;;;;;;0.10;0.10;;;;;;;-145.06;100.00;92330.28;10486985;28;20120;-77
2023/06/01 01:22:20;;;;;;;0.10;0.10;;;;;;;-145.06;100.00;92315.97;10491675;28;20111;-78
2023/06/01 01:27:31;;;;;;;0.03;0.03;;;;;;;-145.06;100.00;92330.28;10488725;28;20489;-78
2023/06/01 01:32:32;;;;;;;0.00;0.00;;;;;;;-145.06;100.00;92338.47;10471637;28;20032;-77
2023/06/01 01:37:33;;;;;;;0.10;0.10;;;;;;;-145.06;100.00;92313.94;10471126;28;20055;-77
2023/06/01 01:42:34;;;;;;;0.10;0.10;;;;;;;-145.06;100.00;92328.25;10486839;28;20044;-78
2023/06/01 01:47:43;;;;;;;0.10;0.10;;;;;;;-145.06;100.00;92328.25;10467251;28;20051;-78
2023/06/01 01:52:45;;;;;;;0.10;0.10;;;;;;;-145.06;100.00;92358.91;10491061;28;20016;-77
2023/06/01 01:57:47;;;;;;;0.10;0.10;;;;;;;-145.06;100.00;92363.00;10485576;28;20035;-78
2023/06/01 02:02:47;;;;;;;0.10;0.10;;;;;;;-145.06;100.00;92305.75;10489811;28;20043;-77
2023/06/01 02:07:48;;;;;;;0.00;0.00;;;;;;;-145.06;100.00;92356.88;10488591;28;20078;-78
2023/06/01 02:12:48;;;;;;;0.10;0.10;;;;;;;-145.06;100.00;92358.91;10487432;28;20358;-78
2023/06/01 02:17:53;;;;;;;0.10;0.10;;;;;;;-145.06;100.00;92393.66;10466972;28;20032;-77
2023/06/01 02:22:53;;;;;;;0.10;0.10;;;;;;;-145.06;100.00;92381.41;10485134;28;20036;-78
2023/06/01 02:27:54;;;;;;;0.10;0.10;;;;;;;-145.06;100.00;92373.22;10486146;28;20393;-78
2023/06/01 02:32:54;;;;;;;0.08;0.08;;;;;;;-145.06;100.00;92367.09;10469140;28;20028;-77
2023/06/01 02:37:56;;;;;;;0.10;0.10;;;;;;;-145.06;100.00;92401.84;10485997;28;20481;-77
2023/06/01 02:42:56;;;;;;;0.10;0.10;;;;;;;-145.06;100.00;92352.78;10489108;28;20031;-78
2023/06/01 02:47:56;;;;;;;0.00;0.00;;;;;;;-145.06;100.00;92385.50;10471995;28;20520;-77
2023/06/01 02:52:56;;;;;;;0.10;0.10;;;;;;;-145.06;100.00;92410.03;10487094;28;20384;-78
2023/06/01 02:57:57;;;;;;;0.10;0.10;;;;;;;-145.06;100.00;92442.75;10486602;28;20016;-78
2023/06/01 03:02:57;;;;;;;0.10;0.10;;;;;;;-145.06;100.00;92358.91;10468605;28;20642;-77
2023/06/01 03:07:57;;;;;;;0.10;0.10;;;;;;;-145.06;100.00;92365.03;10482522;28;20442;-78
2023/06/01 03:12:58;;;;;;;0.03;0.03;;;;;;;-145.06;100.00;92405.94;10485875;28;20391;-78
2023/06/01 03:17:58;;;;;;;0.10;0.10;;;;;;;-145.06;100.00;92389.59;10487439;28;20079;-78
2023/06/01 03:22:58;;;;;;;0.10;0.10;;;;;;;-145.06;100.00;92340.50;10485134;28;20054;-78
2023/06/01 03:27:59;;;;;;;0.00;0.00;;;;;;;-145.06;100.00;92367.09;10467636;28;20384;-76
2023/06/01 03:32:59;;;;;;;0.10;0.10;;;;;;;-145.06;100.00;92418.22;10467518;28;20465;-77
2023/06/01 03:37:59;;;;;;;0.00;0.00;;;;;;;-145.06;100.00;92348.69;10487502;28;20263;-76
2023/06/01 03:43:00;;;;;;;0.10;0.10;;;;;;;-145.06;100.00;92352.78;10485915;28;20028;-78
2023/06/01 03:48:00;;;;;;;0.10;0.10;;;;;;;-145.06;100.00;92373.22;10483035;28;20465;-76
2023/06/01 03:53:01;;;;;;;0.10;0.10;;;;;;;-145.06;100.00;92377.31;10488163;28;20542;-77
2023/06/01 03:58:02;;;;;;;0.10;0.10;;;;;;;-145.06;100.00;92303.69;10461189;28;20025;-78
2023/06/01 04:03:06;;;;;;;0.10;0.10;;;;;;;-145.06;100.00;92352.78;10455658;28;20511;-77
2023/06/01 04:08:08;;;;;;;0.00;0.00;;;;;;;-145.06;100.00;92311.88;10471810;28;20021;-77
2023/06/01 04:13:08;;;;;;;0.00;0.00;;;;;;;-145.06;100.00;92315.97;10478133;28;21007;-78
2023/06/01 04:18:09;;;;;;;0.10;0.10;;;;;;;-145.06;100.00;92311.88;10482548;28;20012;-78
2023/06/01 04:23:09;;;;;;;0.10;0.10;;;;;;;-145.06;100.00;92346.66;10482943;28;20031;-77
2023/06/01 04:28:10;;;;;;;0.10;0.10;;;;;;;-145.06;100.00;92301.66;10494291;28;20021;-78
2023/06/01 04:33:10;;;;;;;0.10;0.10;;;;;;;-145.06;100.00;92313.94;10491104;28;20252;-78
2023/06/01 04:38:11;;;;;;;0.10;0.10;;;;;;;-145.06;100.00;92330.28;10490846;28;20028;-78
2023/06/01 04:43:12;;;;;;;0.10;0.10;;;;;;;-145.06;100.00;92287.34;10489763;28;20377;-78
2023/06/01 04:48:16;;;;;;;0.10;0.10;;;;;;;-145.06;100.00;92291.44;10490962;28;20024;-77
2023/06/01 04:53:16;;;;;;;0.10;0.10;;;;;;;-145.06;100.00;92258.72;10488354;28;20017;-78
2023/06/01 04:58:17;;;;;;;0.10;0.10;;;;;;;-145.06;100.00;92174.88;10489627;28;20032;-77
2023/06/01 05:03:17;;;;;;;0.10;0.10;;;;;;;-145.06;100.00;92042.00;10491132;28;20020;-77
2023/06/01 05:08:17;;;;;;;0.10;0.10;;;;;;;-145.06;100.00;92019.50;10484599;28;20039;-77
2023/06/01 05:13:17;;;;;;;0.10;0.10;;;;;;;-145.06;100.00;91888.66;10468471;28;20479;-77
2023/06/01 05:18:18;;;;;;;0.10;0.10;;;;;;;-145.06;100.00;91939.75;10471865;28;20048;-77
2023/06/01 05:23:18;;;;;;;0.10;0.10;;;;;;;-145.06;100.00;91900.91;10472875;28;20020;-78
2023/06/01 05:28:20;;;;;;;0.10;0.10;;;;;;;-145.06;100.00;91896.81;10492015;28;20451;-77
2023/06/01 05:33:20;;;;;;;0.10;0.10;;;;;;;-145.06;100.00;91929.53;10484019;28;20031;-77
2023/06/01 05:38:21;;;;;;;0.10;0.10;;;;;;;-145.06;100.00;91872.28;10466226;28;20036;-77
2023/06/01 05:43:21;;;;;;;0.10;0.10;;;;;;;-145.06;100.00;91817.09;10491687;28;20031;-77
2023/06/01 05:48:21;;;;;;;0.10;0.10;;;;;;;-145.06;100.00;91800.75;10480096;28;20036;-77
2023/06/01 05:53:24;;;;;;;0.17;0.17;;;;;;;-145.06;100.00;91794.59;10489567;28;20021;-78
2023/06/01 05:58:25;;;;;;;0.10;0.10;;;;;;;-145.06;100.00;91829.34;10488521;28;20096;-78
2023/06/01 06:03:25;;;;;;;0.10;0.10;;;;;;;-145.06;100.00;91731.22;10489200;28;20025;-77
2023/06/01 06:08:25;;;;;;;0.00;0.00;;;;;;;-145.06;100.00;91827.31;10492031;28;20028;-78
2023/06/01 06:13:26;;;;;;;0.10;0.10;;;;;;;-145.06;100.00;91825.28;10468128;28;20239;-78
2023/06/01 06:18:26;;;;;;;0.10;0.10;;;;;;;-145.06;100.00;91796.66;10469671;28;20075;-78
2023/06/01 06:23:27;;;;;;;0.10;0.10;;;;;;;-145.06;100.00;91788.47;10489405;28;20017;-78
2023/06/01 06:28:27;;;;;;;0.10;0.10;;;;;;;-145.06;100.00;91802.78;10488995;28;20025;-78
2023/06/01 06:33:27;;;;;;;0.10;0.10;;;;;;;-145.06;100.00;91755.75;10489084;28;20013;-78
2023/06/01 06:38:28;;;;;;;0.08;0.08;;;;;;;-145.06;100.00;91743.50;10469307;28;20389;-78
2023/06/01 06:43:28;;;;;;;0.10;0.10;;;;;;;-145.06;100.00;91741.44;10468015;28;20021;-77
2023/06/01 06:48:28;;;;;;;0.10;0.10;;;;;;;-145.06;100.00;91776.22;10482154;28;20021;-77
2023/06/01 06:53:29;;;;;;;0.10;0.10;;;;;;;-145.06;100.00;91723.06;10465196;28;20012;-77
2023/06/01 06:58:30;;;;;;;0.10;0.10;;;;;;;-145.06;100.00;91745.53;10485350;28;20295;-78
2023/06/01 07:03:31;;;;;;;0.10;0.10;;;;;;;-145.06;100.00;91694.44;10489055;28;20428;-79
2023/06/01 07:08:34;;;;;;;0.00;0.00;;;;;;;-145.06;100.00;91696.47;10486918;28;20021;-78
2023/06/01 07:13:35;;;;;;;0.10;0.10;;;;;;;-145.06;100.00;91649.44;10487373;28;20410;-78
2023/06/01 07:18:36;;;;;;;0.10;0.10;;;;;;;-145.06;100.00;91678.06;10490839;28;20512;-78
2023/06/01 07:23:36;;;;;;;0.10;0.10;;;;;;;-145.06;100.00;91702.59;10496554;28;20116;-78
2023/06/01 07:28:36;;;;;;;0.10;0.10;;;;;;;-145.06;100.00;91671.94;10490088;22;20314;-72
2023/06/01 07:33:37;;;;;;;0.10;0.10;;;;;;;-145.06;100.00;91692.38;10445702;28;20413;-72
2023/06/01 07:38:37;;;;;;;0.10;0.10;;;;;;;-145.06;100.00;91618.78;10445762;28;20516;-71
2023/06/01 07:43:38;;;;;;;0.10;0.10;;;;;;;-145.06;100.00;91674.00;10446920;28;20271;-75
2023/06/01 07:48:38;;;;;;;0.10;0.10;;;;;;;-145.06;100.00;91655.59;10459048;28;20047;-73
2023/06/01 07:53:39;;;;;;;0.10;0.10;;;;;;;-145.06;98.62;91659.69;10436524;28;20024;-74
2023/06/01 07:58:39;;;;;;;0.10;0.10;;;;;;;-145.06;100.00;91653.53;10439894;28;20013;-75
2023/06/01 08:03:43;;;;;;;0.10;0.10;;;;;;;-145.06;100.00;91661.72;10445461;28;20070;-73
2023/06/01 08:08:43;;;;;;;0.10;0.10;;;;;;;-145.06;100.00;91649.44;10450396;28;20029;-73
2023/06/01 08:13:45;;;;;;;0.10;0.10;;;;;;;-145.06;100.00;91641.28;10455106;28;20465;-73
2023/06/01 08:18:46;;;;;;;0.00;0.00;;;;;;;-145.06;100.00;91645.38;10448617;28;20029;-73
2023/06/01 08:23:47;;;;;;;0.03;0.03;;;;;;;-145.06;98.02;91586.06;10441355;28;20273;-73
2023/06/01 08:28:53;;;;;;;0.10;0.10;;;;;;;-145.06;95.15;91490.00;10450744;28;20094;-74
2023/06/01 08:33:55;;;;;;;0.10;0.10;;;;;;;-145.06;93.20;91485.91;10450092;28;20032;-73
2023/06/01 08:38:56;;;;;;;0.10;0.10;;;;;;;-145.06;91.85;91461.38;10449716;28;20037;-73
2023/06/01 08:44:02;;;;;;;0.10;0.10;;;;;;;-145.06;93.34;91510.44;10452139;28;20017;-73
2023/06/01 08:49:05;;;;;;;0.10;0.10;;;;;;;-145.06;91.55;91440.94;10450153;28;20053;-73
2023/06/01 08:54:09;;;;;;;0.10;0.10;;;;;;;-145.06;89.78;91410.28;10451807;28;20107;-73
2023/06/01 08:59:15;;;;;;;0.10;0.10;;;;;;;-145.06;88.10;91420.50;10448342;28;20163;-73
2023/06/01 09:04:15;;;;;;;0.10;0.10;;;;;;;-145.06;87.41;91383.69;10451403;28;20371;-73
2023/06/01 09:09:16;;;;;;;0.10;0.10;;;;;;;-145.06;87.43;91377.56;10449338;28;20021;-73
2023/06/01 09:14:24;;;;;;;0.10;0.10;;;;;;;-145.06;89.16;91379.59;10444637;28;20020;-73
2023/06/01 09:19:40;;;;;;;0.10;0.10;;;;;;;-145.06;85.98;91359.16;10449013;28;20044;-73
2023/06/01 09:24:54;;;;;;;0.10;0.10;;;;;;;-145.06;88.41;91371.44;10441446;28;20392;-73
2023/06/01 09:29:55;;;;;;;;;;;;;;;-145.06;85.23;91383.69;10451606;28;20116;-73
2023/06/01 09:34:55;;;;;;;0.10;0.10;;;;;;;-145.06;86.88;91383.69;10452197;28;20395;-73
2023/06/01 09:39:56;;;;;;;0.10;0.10;;;;;;;-145.06;86.73;91365.28;10444534;28;20021;-73
2023/06/01 09:45:14;;;;;;;0.00;0.00;;;;;;;-145.06;85.53;91312.16;10459409;28;20068;-72
2023/06/01 09:50:33;;;;;;;0.03;0.03;;;;;;;-145.06;85.87;91363.25;10446996;28;20021;-73
2023/06/01 09:55:33;;;;;;;0.10;0.10;;;;;;;-145.06;85.20;91308.06;10449025;28;20561;-73
2023/06/01 10:00:34;;;;;;;0.10;0.10;;;;;;;-145.06;77.91;91244.69;10446079;28;20025;-73
2023/06/01 10:05:34;;;;;;;0.10;0.10;;;;;;;-145.06;77.50;91179.28;10446119;28;20043;-72
2023/06/01 10:10:36;;;;;;;0.00;0.00;;;;;;;-145.06;75.99;91171.09;10458743;28;20025;-73
2023/06/01 10:15:36;;;;;;;0.10;0.10;;;;;;;-145.06;79.09;91250.81;10460755;28;20032;-73
2023/06/01 10:20:39;;;;;;;0.10;0.10;;;;;;;-145.06;77.32;91285.56;10437413;28;20033;-72
2023/06/01 10:25:47;;;;;;;0.00;0.00;;;;;;;-145.06;77.41;91207.91;10445437;28;20104;-72
2023/06/01 10:31:26;;;;;;;0.10;0.10;;;;;;;-145.06;77.45;91205.84;10448759;28;20368;-72
2023/06/01 10:36:51;;;;;;;0.10;0.10;;;;;;;-145.06;79.59;91297.84;10444824;28;20400;-72
2023/06/01 10:41:52;;;;;;;0.10;0.10;;;;;;;-145.06;80.48;91261.03;10447027;28;20025;-73
2023/06/01 10:46:53;;;;;;;0.00;0.00;;;;;;;-145.06;81.21;91252.88;10429015;28;20025;-73
2023/06/01 10:52:28;;;;;;;0.10;0.10;;;;;;;-145.06;77.90;91242.66;10443158;28;20021;-73
2023/06/01 10:57:29;;;;;;;0.10;0.10;;;;;;;-145.06;77.69;91226.28;10443519;28;20051;-73
2023/06/01 11:02:30;;;;;;;0.10;0.10;;;;;;;-145.06;76.87;91230.38;10444906;28;20532;-73
2023/06/01 11:07:39;;;;;;;0.10;0.10;;;;;;;-145.06;78.54;91230.38;10444154;28;20428;-74
2023/06/01 11:13:12;;;;;;;0.10;0.10;;;;;;;-145.06;78.40;91263.09;10444854;28;20021;-74
2023/06/01 11:18:39;;;;;;;;;;;;;;;-145.06;79.62;91283.53;10427998;28;20033;-74
2023/06/01 11:23:40;;;;;;;0.10;0.10;;;;;;;-145.06;80.98;91365.28;10442358;28;19915;-74
2023/06/01 11:28:42;;;;;;;0.10;0.10;;;;;;;-145.06;82.22;91281.47;10442946;28;20405;-72
2023/06/01 11:33:52;;;;;;;0.10;0.10;;;;;;;-145.06;79.77;91279.44;10444702;28;20025;-73
2023/06/01 11:38:55;;;;;;;0.10;0.10;;;;;;;-145.06;81.50;91310.09;10458793;28;20029;-73
2023/06/01 11:43:57;;;;;;;0.10;0.10;;;;;;;-145.06;82.31;91350.97;10460299;28;20048;-74
2023/06/01 11:49:05;;;;;;;0.10;0.10;;;;;;;-145.06;84.38;91348.94;10453714;28;20032;-74
2023/06/01 11:54:05;;;;;;;0.10;0.10;;;;;;;-145.06;87.66;91316.22;10457406;28;20027;-74
2023/06/01 11:59:09;;;;;;;0.10;0.10;;;;;;;-145.06;86.12;91316.22;10456967;28;20496;-73
2023/06/01 12:04:16;;;;;;;;;;;;;;;-145.06;82.87;91240.59;10456639;28;20082;-74
2023/06/01 12:09:20;;;;;;;0.10;0.10;;;;;;;-145.06;80.98;91252.88;10460024;28;19948;-73
2023/06/01 12:14:20;;;;;;;0.10;0.10;;;;;;;-145.06;81.06;91242.66;10437151;28;20049;-73
2023/06/01 12:19:21;;;;;;;0.10;0.10;;;;;;;-145.06;80.19;91197.66;10458304;28;20481;-73
2023/06/01 12:24:32;;;;;;;0.10;0.10;;;;;;;-145.06;79.37;91261.03;10454068;28;20020;-73
2023/06/01 12:29:41;;;;;;;0.10;0.10;;;;;;;-145.06;77.12;91169.06;10456216;28;20043;-73
2023/06/01 12:34:48;;;;;;;0.10;0.10;;;;;;;-145.06;76.96;91158.84;10457045;28;20222;-73
2023/06/01 12:39:59;;;;;;;0.10;0.10;;;;;;;-145.06;73.09;91044.38;10458344;28;20028;-73
2023/06/01 12:45:00;;;;;;;0.10;0.10;;;;;;;-145.06;70.65;90985.09;10455967;28;20017;-73
2023/06/01 12:50:04;;;;;;;0.10;0.10;;;;;;;-145.06;72.19;90981.00;10430376;28;20036;-73
2023/06/01 12:55:06;;;;;;;0.10;0.10;;;;;;;-145.06;70.88;91001.44;10450414;28;20052;-73
2023/06/01 13:00:07;;;;;;;0.10;0.10;;;;;;;-145.06;69.99;90989.19;10449554;28;20063;-74
2023/06/01 13:05:08;;;;;;;0.10;0.10;;;;;;;-145.06;71.27;91030.06;10450006;28;20058;-73
2023/06/01 13:10:10;;;;;;;0.10;0.10;;;;;;;-145.06;71.52;90978.97;10447536;28;20060;-72
2023/06/01 13:15:12;;;;;;;0.10;0.10;;;;;;;-145.06;69.73;90983.03;10448433;28;20040;-73
2023/06/01 13:20:16;;;;;;;0.10;0.10;;;;;;;-145.06;68.95;90940.13;10448624;28;20025;-74
2023/06/01 13:25:16;;;;;;;0.10;0.10;;;;;;;-145.06;67.73;90958.50;10450181;28;20024;-73
2023/06/01 13:30:17;;;;;;;0.10;0.10;;;;;;;-145.06;66.29;90868.59;10446725;28;20032;-73
2023/06/01 13:35:18;;;;;;;0.10;0.10;;;;;;;-145.06;67.30;90907.41;10450949;28;20029;-73
2023/06/01 13:40:22;;;;;;;0.10;0.10;;;;;;;-145.06;67.88;90913.53;10447271;28;20020;-73
2023/06/01 13:45:22;;;;;;;0.10;0.10;;;;;;;-145.06;69.18;90913.53;10445621;28;20031;-73
2023/06/01 13:50:23;;;;;;;0.10;0.10;;;;;;;-145.06;67.57;90917.63;10431240;28;20025;-73
2023/06/01 13:55:24;;;;;;;0.00;0.00;;;;;;;-145.06;66.11;90952.38;10448464;28;20401;-72
2023/06/01 14:00:27;;;;;;;0.10;0.10;;;;;;;-145.06;68.18;90962.59;10441397;28;20295;-73
2023/06/01 14:05:27;;;;;;;0.10;0.10;;;;;;;-145.06;69.30;91007.56;10445776;28;20605;-73
2023/06/01 14:10:28;;;;;;;0.10;0.10;;;;;;;-145.06;66.39;90938.06;10449191;28;20070;-73
2023/06/01 14:15:28;;;;;;;0.10;0.10;;;;;;;-145.06;68.69;90913.53;10445736;28;20021;-73
2023/06/01 14:20:29;;;;;;;0.10;0.10;;;;;;;-145.06;66.83;90966.69;10448182;28;20016;-73
2023/06/01 14:25:30;;;;;;;0.10;0.10;;;;;;;-145.06;66.77;91003.47;10448791;28;20064;-73
2023/06/01 14:30:30;;;;;;;0.10;0.10;;;;;;;-145.06;66.13;90962.59;10446690;28;20457;-73
2023/06/01 14:35:33;;;;;;;0.10;0.10;;;;;;;-145.06;67.18;90987.13;10444907;28;20520;-73
2023/06/01 14:40:33;;;;;;;0.10;0.10;;;;;;;-145.06;63.41;90958.50;10429296;28;20020;-73
2023/06/01 14:45:33;;;;;;;0.10;0.10;;;;;;;-145.06;66.81;91001.44;10447971;28;20039;-73
2023/06/01 14:50:33;;;;;;;0.00;0.00;;;;;;;-145.06;63.45;91030.06;10446182;28;20714;-73
2023/06/01 14:55:34;;;;;;;0.10;0.10;;;;;;;-145.06;65.60;91081.16;10447456;28;20021;-72
2023/06/01 15:00:35;;;;;;;0.10;0.10;;;;;;;-145.06;67.19;91060.72;10447675;28;20029;-72
2023/06/01 15:05:35;;;;;;;0.10;0.10;;;;;;;-145.06;66.25;91113.88;10448359;28;20023;-72
2023/06/01 15:10:36;;;;;;;0.10;0.10;;;;;;;-145.06;67.34;91105.69;10443796;28;20029;-72
2023/06/01 15:15:36;;;;;;;0.10;0.10;;;;;;;-145.06;67.78;91025.97;10445595;28;20457;-72
2023/06/01 15:20:36;;;;;;;0.10;0.10;;;;;;;-145.06;68.37;91064.81;10446842;28;20022;-72
2023/06/01 15:25:37;;;;;;;0.10;0.10;;;;;;;-145.06;67.29;91132.25;10447917;28;20029;-72
2023/06/01 15:30:37;;;;;;;0.10;0.10;;;;;;;-145.06;67.88;91099.56;10424950;28;20026;-73
2023/06/01 15:35:37;;;;;;;0.10;0.10;;;;;;;-145.06;68.75;91093.44;10424436;28;20021;-74
2023/06/01 15:40:37;;;;;;;0.10;0.10;;;;;;;-145.06;70.36;91187.44;10447240;28;20017;-73
2023/06/01 15:45:38;;;;;;;0.10;0.10;;;;;;;-145.06;69.46;91283.53;10446080;28;20017;-74
2023/06/01 15:50:38;;;;;;;0.10;0.10;;;;;;;-145.06;70.27;91265.13;10446724;28;20283;-74
2023/06/01 15:55:39;;;;;;;0.00;0.00;;;;;;;-145.06;68.54;91175.19;10448286;28;20108;-73
2023/06/01 16:00:39;;;;;;;0.10;0.10;;;;;;;-145.06;68.19;91226.28;10445004;28;20025;-73
2023/06/01 16:05:40;;;;;;;0.00;0.00;;;;;;;-145.06;70.73;91291.72;10447744;28;20419;-73
2023/06/01 16:10:40;;;;;;;0.00;0.00;;;;;;;-145.06;71.19;91216.06;10447506;28;20082;-73
2023/06/01 16:15:40;;;;;;;0.00;0.00;;;;;;;-145.06;72.52;91234.47;10446613;28;20013;-73
2023/06/01 16:20:40;;;;;;;0.10;0.10;;;;;;;-145.06;70.86;91175.19;10445178;28;20029;-74
2023/06/01 16:25:41;;;;;;;0.10;0.10;;;;;;;-145.06;70.73;91240.59;10455413;28;20020;-74
2023/06/01 16:30:41;;;;;;;0.10;0.10;;;;;;;-145.06;72.74;91228.34;10449688;28;20028;-73
2023/06/01 16:35:41;;;;;;;0.10;0.10;;;;;;;-145.06;72.13;91334.63;10454415;28;20260;-73
2023/06/01 16:40:42;;;;;;;0.10;0.10;;;;;;;-145.06;71.14;91236.50;10451931;28;20025;-73
2023/06/01 16:45:42;;;;;;;0.10;0.10;;;;;;;-145.06;73.27;91267.19;10448950;28;20047;-73
2023/06/01 16:50:43;;;;;;;0.10;0.10;;;;;;;-145.06;72.08;91273.31;10451325;28;20428;-75
2023/06/01 16:55:43;;;;;;;0.10;0.10;;;;;;;-145.06;70.30;91232.41;10451503;28;20017;-73
2023/06/01 17:00:44;;;;;;;0.10;0.10;;;;;;;-145.06;72.45;91224.25;10431276;28;20016;-73
2023/06/01 17:05:44;;;;;;;0.10;0.10;;;;;;;-145.06;73.01;91424.56;10447604;28;20017;-73
2023/06/01 17:10:45;;;;;;;0.10;0.10;;;;;;;-145.06;75.86;91359.16;10447900;28;20497;-73
2023/06/01 17:15:45;;;;;;;0.10;0.10;;;;;;;-145.06;74.16;91348.94;10446093;28;20092;-73
2023/06/01 17:20:45;;;;;;;0.10;0.10;;;;;;;-145.06;72.13;91412.31;10446165;28;20632;-73
2023/06/01 17:25:46;;;;;;;0.10;0.10;;;;;;;-145.06;74.08;91494.09;10453028;28;20024;-73
2023/06/01 17:30:46;;;;;;;0.10;0.10;;;;;;;-145.06;75.13;91487.94;10451389;28;20389;-74
2023/06/01 17:35:46;;;;;;;0.10;0.10;;;;;;;-145.06;76.80;91649.44;10451513;28;20458;-73
2023/06/01 17:40:47;;;;;;;0.10;0.10;;;;;;;-145.06;76.96;91563.59;10449562;28;20028;-74
2023/06/01 17:45:47;;;;;;;0.10;0.10;;;;;;;-145.06;78.46;91641.28;10447375;28;20378;-74
2023/06/01 17:50:48;;;;;;;0.10;0.10;;;;;;;-145.06;78.06;91620.84;10449331;28;20024;-74
2023/06/01 17:55:49;;;;;;;0.10;0.10;;;;;;;-145.06;79.60;91667.84;10452671;28;20021;-74
2023/06/01 18:00:49;;;;;;;0.10;0.10;;;;;;;-145.06;79.28;91839.59;10443979;28;20382;-74
2023/06/01 18:05:50;;;;;;;0.10;0.10;;;;;;;-145.06;79.20;91898.88;10448574;28;20377;-74
2023/06/01 18:10:50;;;;;;;0.10;0.10;;;;;;;-145.06;77.95;91931.59;10449256;28;20027;-74
2023/06/01 18:15:50;;;;;;;0.10;0.10;;;;;;;-145.06;80.17;91933.63;10447240;28;20012;-74
2023/06/01 18:20:50;;;;;;;0.20;0.20;;;;;;;-145.06;81.25;91939.75;10444488;28;20029;-74
2023/06/01 18:25:51;;;;;;;0.10;0.10;;;;;;;-145.06;82.60;91982.69;10442552;28;20024;-73
2023/06/01 18:30:51;;;;;;;0.10;0.10;;;;;;;-145.06;84.38;91999.06;10442318;28;20056;-74
2023/06/01 18:35:51;;;;;;;0.10;0.10;;;;;;;-145.06;84.15;92027.69;10443584;28;20027;-73
2023/06/01 18:40:52;;;;;;;0.10;0.10;;;;;;;-145.06;83.80;92005.19;10446264;28;20035;-73
2023/06/01 18:45:52;;;;;;;0.10;0.10;;;;;;;-145.06;85.10;92025.63;10447938;28;20412;-73
2023/06/01 18:50:52;;;;;;;0.10;0.10;;;;;;;-145.06;85.09;92058.34;10445629;28;20075;-73
2023/06/01 18:55:53;;;;;;;0.10;0.10;;;;;;;-145.06;85.04;92017.47;10449855;28;20605;-73
2023/06/01 19:00:53;;;;;;;0.00;0.00;;;;;;;-145.06;86.16;92039.94;10449093;28;20384;-73
2023/06/01 19:05:55;;;;;;;0.10;0.10;;;;;;;-145.06;87.51;92074.69;10445141;28;20558;-73
2023/06/01 19:11:06;;;;;;;0.05;0.05;;;;;;;-145.06;88.63;92078.78;10448398;28;20028;-73
2023/06/01 19:16:13;;;;;;;0.10;0.10;;;;;;;-145.06;88.80;92125.81;10445830;28;20471;-73
2023/06/01 19:21:19;;;;;;;0.10;0.10;;;;;;;-145.06;89.88;92113.56;10426577;28;20079;-73
2023/06/01 19:26:22;;;;;;;0.10;0.10;;;;;;;-145.06;92.15;92134.00;10430631;28;20031;-73
2023/06/01 19:31:25;;;;;;;0.10;0.10;;;;;;;-145.06;92.94;92181.03;10431083;28;20489;-73
2023/06/01 19:36:43;;;;;;;0.10;0.10;;;;;;;-145.06;94.51;92148.31;10442353;28;20090;-73
2023/06/01 19:41:44;;;;;;;0.10;0.10;;;;;;;-145.06;95.82;92176.94;10460252;28;20352;-72
2023/06/01 19:46:45;;;;;;;0.10;0.10;;;;;;;-145.06;96.09;92131.94;10444009;28;20056;-72
2023/06/01 19:51:46;;;;;;;0.10;0.10;;;;;;;-145.06;96.76;92191.25;10443760;28;20063;-72
2023/06/01 20:02:00;;;;;;;0.03;0.03;;;;;;;-145.06;97.36;92189.19;10498183;28;20530;-72
2023/06/01 20:07:01;;;;;;;0.10;0.10;;;;;;;-145.06;97.97;92185.13;10482752;28;20103;-72
2023/06/01 20:12:01;;;;;;;0.10;0.10;;;;;;;-145.06;98.89;92178.97;10500556;28;20104;-72
2023/06/01 20:17:05;;;;;;;0.10;0.10;;;;;;;-145.06;100.00;92193.28;10500295;28;20024;-72
2023/06/01 20:22:07;;;;;;;0.10;0.10;;;;;;;-145.06;100.00;92197.38;10500189;28;20040;-72
2023/06/01 20:27:08;;;;;;;0.10;0.10;;;;;;;-145.06;100.00;92232.13;10500888;28;20020;-73
2023/06/01 20:37:20;;;;;;;0.10;0.10;;;;;;;-145.06;100.00;92211.69;10677762;23;20113;-92
2023/06/01 20:42:20;;;;;;;0.10;0.10;;;;;;;-145.06;100.00;92187.16;10347905;28;20022;-93
2023/06/01 20:47:21;;;;;;;0.10;0.10;;;;;;;-145.06;100.00;92277.13;10351560;23;20499;-92
2023/06/01 20:52:21;;;;;;;0.10;0.10;;;;;;;-145.06;100.00;92213.75;10376715;28;20026;-93
2023/06/01 20:57:21;;;;;;;0.03;0.03;;;;;;;-145.06;100.00;92246.44;10376498;28;20045;-93
2023/06/01 21:02:22;;;;;;;0.10;0.10;;;;;;;-145.06;100.00;92152.41;10373870;28;20030;-93
2023/06/01 21:07:22;;;;;;;0.10;0.10;;;;;;;-145.06;100.00;92209.66;10368213;28;20226;-92
2023/06/01 21:12:22;;;;;;;0.03;0.03;;;;;;;-145.06;100.00;92252.59;10365130;28;20802;-93
2023/06/01 21:17:23;;;;;;;0.10;0.10;;;;;;;-145.06;100.00;92273.03;10359605;28;20033;-92
2023/06/01 21:22:26;;;;;;;0.10;0.10;;;;;;;-145.06;100.00;92303.69;10356535;28;20022;-92
2023/06/01 21:27:27;;;;;;;0.10;0.10;;;;;;;-145.06;100.00;92334.38;10355619;28;20026;-91
2023/06/01 21:32:28;;;;;;;0.10;0.10;;;;;;;-145.06;100.00;92285.31;10365123;28;20021;-94
2023/06/01 21:37:28;;;;;;;0.10;0.10;;;;;;;-145.06;100.00;92242.38;10386031;28;20032;-93
2023/06/01 21:42:29;;;;;;;0.00;0.00;;;;;;;-145.06;100.00;92379.34;10370331;28;20027;-93
2023/06/01 21:47:29;;;;;;;0.10;0.10;;;;;;;-145.06;100.00;92250.53;10374381;28;20033;-91
2023/06/01 21:52:30;;;;;;;0.10;0.10;;;;;;;-145.06;100.00;92293.47;10382216;28;20014;-93
2023/06/01 21:57:30;;;;;;;0.10;0.10;;;;;;;-145.06;100.00;92201.47;10372232;28;20022;-93
2023/06/01 22:02:37;;;;;;;0.10;0.10;;;;;;;-145.06;100.00;92307.78;10383370;28;20053;-91
2023/06/01 22:07:39;;;;;;;0.00;0.00;;;;;;;-145.06;100.00;92193.28;10377489;28;20475;-92
2023/06/01 22:12:39;;;;;;;0.10;0.10;;;;;;;-145.06;100.00;92219.88;10370800;28;20022;-92
2023/06/01 22:17:40;;;;;;;0.10;0.10;;;;;;;-145.06;100.00;92283.25;10379941;28;20159;-93
2023/06/01 22:22:40;;;;;;;0.10;0.10;;;;;;;-145.06;100.00;92201.47;10369191;28;20048;-92
2023/06/01 22:27:41;;;;;;;0.10;0.10;;;;;;;-145.06;100.00;92273.03;10369786;28;20029;-93
2023/06/01 22:32:41;;;;;;;0.05;0.05;;;;;;;-145.06;100.00;92338.47;10364599;28;20053;-92
2023/06/01 22:37:42;;;;;;;0.10;0.10;;;;;;;-145.06;100.00;92277.13;10349781;28;20025;-93
2023/06/01 22:42:42;;;;;;;0.00;0.00;;;;;;;-145.06;100.00;92264.84;10356381;28;20026;-92
2023/06/01 22:47:43;;;;;;;0.00;0.00;;;;;;;-145.06;100.00;92279.16;10371927;28;20297;-94
2023/06/01 22:52:44;;;;;;;0.10;0.10;;;;;;;-145.06;100.00;92256.69;10371177;28;20414;-93
2023/06/01 22:57:44;;;;;;;0.10;0.10;;;;;;;-145.06;100.00;92277.13;10375275;28;20120;-93